sensor_id;sensor_type;location;lat;lon;timestamp;pressure;altitude;pressure_sealevel;temperature;humidity
41234;BME280;26968;42.686;23.352;2023-03-01T00:01:23;95699.97;;;7.88;71.95
41234;BME280;26968;42.686;23.352;2023-03-01T00:03:49;95632.41;;;7.32;72.77
41234;BME280;26968;42.686;23.352;2023-03-01T00:06:16;95703.59;;;7.82;72.86
41234;BME280;26968;42.686;23.352;2023-03-01T00:08:43;95688.34;;;7.51;73.36
41234;BME280;26968;42.686;23.352;2023-03-01T00:11:13;95573.81;;;6.96;73.12
41234;BME280;26968;42.686;23.352;2023-03-01T00:13:39;95716.00;;;7.65;73.88
41234;BME280;26968;42.686;23.352;2023-03-01T00:16:07;95621.53;;;7.12;73.15
41234;BME280;26968;42.686;23.352;2023-03-01T00:18:33;95634.81;;;7.17;73.73
41234;BME280;26968;42.686;23.352;2023-03-01T00:20:58;95632.31;;;7.27;73.26
41234;BME280;26968;42.686;23.352;2023-03-01T00:23:24;95703.94;;;7.69;73.44
41234;BME280;26968;42.686;23.352;2023-03-01T00:25:50;95661.44;;;7.32;73.25
41234;BME280;26968;42.686;23.352;2023-03-01T00:28:16;95697.75;;;7.80;73.03
41234;BME280;26968;42.686;23.352;2023-03-01T00:30:42;95693.59;;;7.67;72.91
41234;BME280;26968;42.686;23.352;2023-03-01T00:33:07;95612.50;;;7.24;73.04
41234;BME280;26968;42.686;23.352;2023-03-01T00:35:33;95612.16;;;7.38;72.69
41234;BME280;26968;42.686;23.352;2023-03-01T00:38:00;95603.53;;;7.25;72.10
41234;BME280;26968;42.686;23.352;2023-03-01T00:40:30;95617.91;;;7.34;72.12
41234;BME280;26968;42.686;23.352;2023-03-01T00:42:56;95547.00;;;6.83;72.91
41234;BME280;26968;42.686;23.352;2023-03-01T00:45:22;95478.56;;;6.38;72.89
41234;BME280;26968;42.686;23.352;2023-03-01T00:47:51;95677.94;;;7.61;73.33
41234;BME280;26968;42.686;23.352;2023-03-01T00:50:17;95658.44;;;7.45;73.59
41234;BME280;26968;42.686;23.352;2023-03-01T00:52:43;95581.44;;;6.76;73.52
41234;BME280;26968;42.686;23.352;2023-03-01T00:55:09;95676.34;;;7.26;73.31
41234;BME280;26968;42.686;23.352;2023-03-01T00:57:35;95661.72;;;7.35;74.18
41234;BME280;26968;42.686;23.352;2023-03-01T01:00:00;95668.19;;;7.45;73.30
41234;BME280;26968;42.686;23.352;2023-03-01T01:02:26;95681.84;;;7.58;73.58
41234;BME280;26968;42.686;23.352;2023-03-01T01:04:51;95684.34;;;7.48;73.79
41234;BME280;26968;42.686;23.352;2023-03-01T01:07:17;95680.19;;;7.52;73.89
41234;BME280;26968;42.686;23.352;2023-03-01T01:09:45;95662.94;;;7.28;73.65
41234;BME280;26968;42.686;23.352;2023-03-01T01:12:10;95563.84;;;6.65;73.49
41234;BME280;26968;42.686;23.352;2023-03-01T01:14:36;95613.94;;;7.15;73.33
41234;BME280;26968;42.686;23.352;2023-03-01T01:17:01;95655.13;;;7.16;73.69
41234;BME280;26968;42.686;23.352;2023-03-01T01:19:27;95558.72;;;6.58;73.80
41234;BME280;26968;42.686;23.352;2023-03-01T01:21:52;95686.50;;;7.51;72.94
41234;BME280;26968;42.686;23.352;2023-03-01T01:24:18;95649.16;;;7.26;73.70
41234;BME280;26968;42.686;23.352;2023-03-01T01:26:44;95617.78;;;7.08;73.68
41234;BME280;26968;42.686;23.352;2023-03-01T01:29:10;95626.34;;;7.15;72.51
41234;BME280;26968;42.686;23.352;2023-03-01T01:31:37;95680.38;;;7.46;72.76
41234;BME280;26968;42.686;23.352;2023-03-01T01:34:05;95544.28;;;6.61;72.47
41234;BME280;26968;42.686;23.352;2023-03-01T01:36:31;95673.88;;;7.53;73.02
41234;BME280;26968;42.686;23.352;2023-03-01T01:38:57;95591.56;;;6.68;72.65
41234;BME280;26968;42.686;23.352;2023-03-01T01:41:24;95585.47;;;6.50;73.29
41234;BME280;26968;42.686;23.352;2023-03-01T01:46:38;95586.50;;;6.49;73.57
41234;BME280;26968;42.686;23.352;2023-03-01T01:49:17;95635.53;;;6.79;73.72
41234;BME280;26968;42.686;23.352;2023-03-01T01:51:45;95693.53;;;7.12;73.75
41234;BME280;26968;42.686;23.352;2023-03-01T01:54:27;95601.78;;;6.47;74.00
41234;BME280;26968;42.686;23.352;2023-03-01T01:56:55;95688.75;;;6.92;73.72
41234;BME280;26968;42.686;23.352;2023-03-01T01:59:24;95682.09;;;6.90;73.87
41234;BME280;26968;42.686;23.352;2023-03-01T02:01:54;95659.97;;;6.91;73.69
41234;BME280;26968;42.686;23.352;2023-03-01T02:04:20;95605.31;;;6.41;73.80
41234;BME280;26968;42.686;23.352;2023-03-01T02:06:51;95598.25;;;6.58;73.59
41234;BME280;26968;42.686;23.352;2023-03-01T02:09:20;95679.56;;;7.12;73.05
41234;BME280;26968;42.686;23.352;2023-03-01T02:11:47;95571.09;;;6.58;72.29
41234;BME280;26968;42.686;23.352;2023-03-01T02:14:15;95671.66;;;7.28;72.37
41234;BME280;26968;42.686;23.352;2023-03-01T02:16:41;95666.44;;;7.33;71.68
41234;BME280;26968;42.686;23.352;2023-03-01T02:19:09;95673.31;;;7.34;71.90
41234;BME280;26968;42.686;23.352;2023-03-01T02:21:50;95613.84;;;7.10;71.34
41234;BME280;26968;42.686;23.352;2023-03-01T02:24:38;95611.53;;;7.14;71.05
41234;BME280;26968;42.686;23.352;2023-03-01T02:27:09;95614.69;;;6.94;71.45
41234;BME280;26968;42.686;23.352;2023-03-01T02:29:35;95611.19;;;6.60;72.02
41234;BME280;26968;42.686;23.352;2023-03-01T02:32:02;95647.97;;;6.83;72.20
41234;BME280;26968;42.686;23.352;2023-03-01T02:34:30;95543.66;;;6.26;72.05
41234;BME280;26968;42.686;23.352;2023-03-01T02:37:00;95680.69;;;7.16;72.44
41234;BME280;26968;42.686;23.352;2023-03-01T02:39:35;95562.22;;;6.31;72.50
41234;BME280;26968;42.686;23.352;2023-03-01T02:42:02;95551.53;;;6.37;71.93
41234;BME280;26968;42.686;23.352;2023-03-01T02:44:29;95681.72;;;7.15;72.57
41234;BME280;26968;42.686;23.352;2023-03-01T02:46:56;95675.00;;;7.07;72.94
41234;BME280;26968;42.686;23.352;2023-03-01T02:49:25;95623.44;;;6.83;72.42
41234;BME280;26968;42.686;23.352;2023-03-01T02:54:52;95589.97;;;6.83;72.25
41234;BME280;26968;42.686;23.352;2023-03-01T02:57:21;95552.81;;;6.51;72.57
41234;BME280;26968;42.686;23.352;2023-03-01T02:59:47;95662.53;;;7.36;72.10
41234;BME280;26968;42.686;23.352;2023-03-01T03:02:22;95673.72;;;7.26;73.20
41234;BME280;26968;42.686;23.352;2023-03-01T03:05:03;95578.22;;;6.57;73.10
41234;BME280;26968;42.686;23.352;2023-03-01T03:07:28;95672.28;;;7.19;72.89
41234;BME280;26968;42.686;23.352;2023-03-01T03:09:53;95592.03;;;6.81;72.08
41234;BME280;26968;42.686;23.352;2023-03-01T03:12:19;95589.16;;;6.66;72.85
41234;BME280;26968;42.686;23.352;2023-03-01T03:14:44;95542.09;;;6.41;72.15
41234;BME280;26968;42.686;23.352;2023-03-01T03:17:10;95641.19;;;6.87;72.62
41234;BME280;26968;42.686;23.352;2023-03-01T03:19:35;95561.34;;;6.42;72.92
41234;BME280;26968;42.686;23.352;2023-03-01T03:22:00;95563.78;;;6.15;72.97
41234;BME280;26968;42.686;23.352;2023-03-01T03:24:26;95663.94;;;6.77;73.81
41234;BME280;26968;42.686;23.352;2023-03-01T03:27:03;95670.34;;;6.97;73.40
41234;BME280;26968;42.686;23.352;2023-03-01T03:29:29;95682.28;;;7.00;73.42
41234;BME280;26968;42.686;23.352;2023-03-01T03:31:54;95619.06;;;6.43;73.71
41234;BME280;26968;42.686;23.352;2023-03-01T03:34:19;95669.53;;;6.80;73.37
41234;BME280;26968;42.686;23.352;2023-03-01T03:36:45;95676.59;;;6.91;73.48
41234;BME280;26968;42.686;23.352;2023-03-01T03:39:10;95520.50;;;5.94;73.58
41234;BME280;26968;42.686;23.352;2023-03-01T03:41:36;95560.72;;;6.06;73.85
41234;BME280;26968;42.686;23.352;2023-03-01T03:44:01;95684.56;;;6.96;73.71
41234;BME280;26968;42.686;23.352;2023-03-01T03:46:45;95604.78;;;6.39;73.90
41234;BME280;26968;42.686;23.352;2023-03-01T03:49:10;95692.41;;;6.91;73.90
41234;BME280;26968;42.686;23.352;2023-03-01T03:51:36;95692.25;;;6.98;73.57
41234;BME280;26968;42.686;23.352;2023-03-01T03:54:01;95702.25;;;7.13;73.02
41234;BME280;26968;42.686;23.352;2023-03-01T03:56:27;95627.91;;;6.66;72.88
41234;BME280;26968;42.686;23.352;2023-03-01T04:02:14;95522.91;;;6.12;73.01
41234;BME280;26968;42.686;23.352;2023-03-01T04:04:49;95619.59;;;6.74;72.18
41234;BME280;26968;42.686;23.352;2023-03-01T04:07:16;95621.44;;;6.73;72.28
41234;BME280;26968;42.686;23.352;2023-03-01T04:09:42;95705.94;;;7.28;72.30
41234;BME280;26968;42.686;23.352;2023-03-01T04:12:08;95592.50;;;6.45;72.55
41234;BME280;26968;42.686;23.352;2023-03-01T04:14:34;95604.25;;;6.54;72.20
41234;BME280;26968;42.686;23.352;2023-03-01T04:17:00;95559.34;;;6.32;72.47
41234;BME280;26968;42.686;23.352;2023-03-01T04:19:26;95703.31;;;7.28;72.45
41234;BME280;26968;42.686;23.352;2023-03-01T04:21:52;95706.91;;;7.39;72.15
41234;BME280;26968;42.686;23.352;2023-03-01T04:24:18;95691.38;;;7.26;72.49
41234;BME280;26968;42.686;23.352;2023-03-01T04:26:43;95579.56;;;6.43;71.72
41234;BME280;26968;42.686;23.352;2023-03-01T04:29:08;95607.31;;;6.63;72.18
41234;BME280;26968;42.686;23.352;2023-03-01T04:31:34;95646.69;;;6.69;73.18
41234;BME280;26968;42.686;23.352;2023-03-01T04:33:59;95642.44;;;6.68;72.70
41234;BME280;26968;42.686;23.352;2023-03-01T04:36:27;95695.22;;;7.02;73.07
41234;BME280;26968;42.686;23.352;2023-03-01T04:38:53;95615.56;;;6.38;73.02
41234;BME280;26968;42.686;23.352;2023-03-01T04:41:21;95697.78;;;7.13;72.29
41234;BME280;26968;42.686;23.352;2023-03-01T04:43:47;95592.72;;;6.43;72.49
41234;BME280;26968;42.686;23.352;2023-03-01T04:46:16;95600.25;;;6.51;72.74
41234;BME280;26968;42.686;23.352;2023-03-01T04:48:43;95688.75;;;6.92;73.30
41234;BME280;26968;42.686;23.352;2023-03-01T04:51:09;95602.19;;;6.28;73.68
41234;BME280;26968;42.686;23.352;2023-03-01T04:53:39;95650.91;;;6.70;73.39
41234;BME280;26968;42.686;23.352;2023-03-01T04:56:05;95649.25;;;6.81;73.52
41234;BME280;26968;42.686;23.352;2023-03-01T04:58:30;95693.13;;;7.04;72.94
41234;BME280;26968;42.686;23.352;2023-03-01T05:00:56;95593.53;;;6.44;73.45
41234;BME280;26968;42.686;23.352;2023-03-01T05:03:21;95671.84;;;6.77;73.93
41234;BME280;26968;42.686;23.352;2023-03-01T05:05:49;95607.72;;;6.43;73.40
41234;BME280;26968;42.686;23.352;2023-03-01T05:08:15;95687.78;;;6.98;73.43
41234;BME280;26968;42.686;23.352;2023-03-01T05:10:46;95689.16;;;7.01;73.36
41234;BME280;26968;42.686;23.352;2023-03-01T05:13:12;95686.09;;;6.92;73.47
41234;BME280;26968;42.686;23.352;2023-03-01T05:15:59;95595.09;;;6.28;73.71
41234;BME280;26968;42.686;23.352;2023-03-01T05:18:26;95635.75;;;6.49;74.20
41234;BME280;26968;42.686;23.352;2023-03-01T05:20:52;95649.31;;;6.69;73.47
41234;BME280;26968;42.686;23.352;2023-03-01T05:23:21;95707.88;;;6.88;73.92
41234;BME280;26968;42.686;23.352;2023-03-01T05:25:47;95660.63;;;6.53;74.83
41234;BME280;26968;42.686;23.352;2023-03-01T05:28:13;95603.38;;;6.20;74.13
41234;BME280;26968;42.686;23.352;2023-03-01T05:30:39;95605.97;;;6.32;74.10
41234;BME280;26968;42.686;23.352;2023-03-01T05:33:05;95548.66;;;5.94;73.75
41234;BME280;26968;42.686;23.352;2023-03-01T05:35:36;95597.44;;;6.41;73.15
41234;BME280;26968;42.686;23.352;2023-03-01T05:38:01;95599.97;;;6.36;73.36
41234;BME280;26968;42.686;23.352;2023-03-01T05:40:27;95607.88;;;6.36;73.97
41234;BME280;26968;42.686;23.352;2023-03-01T05:42:56;95704.06;;;6.95;73.82
41234;BME280;26968;42.686;23.352;2023-03-01T05:45:23;95703.66;;;6.87;74.10
41234;BME280;26968;42.686;23.352;2023-03-01T05:47:49;95670.03;;;6.77;73.99
41234;BME280;26968;42.686;23.352;2023-03-01T05:50:27;95705.09;;;6.94;73.27
41234;BME280;26968;42.686;23.352;2023-03-01T05:53:14;95703.75;;;6.92;73.87
41234;BME280;26968;42.686;23.352;2023-03-01T05:55:41;95703.22;;;7.07;72.92
41234;BME280;26968;42.686;23.352;2023-03-01T05:58:13;95667.84;;;6.74;73.69
41234;BME280;26968;42.686;23.352;2023-03-01T06:00:43;95708.25;;;7.08;73.15
41234;BME280;26968;42.686;23.352;2023-03-01T06:03:11;95721.06;;;7.16;72.95
41234;BME280;26968;42.686;23.352;2023-03-01T06:05:38;95649.31;;;6.41;73.25
41234;BME280;26968;42.686;23.352;2023-03-01T06:08:05;95571.72;;;6.03;73.21
41234;BME280;26968;42.686;23.352;2023-03-01T06:10:31;95633.19;;;6.37;73.49
41234;BME280;26968;42.686;23.352;2023-03-01T06:12:57;95743.03;;;6.77;74.57
41234;BME280;26968;42.686;23.352;2023-03-01T06:15:23;95744.84;;;7.05;73.26
41234;BME280;26968;42.686;23.352;2023-03-01T06:17:50;95390.22;;;4.83;72.96
41234;BME280;26968;42.686;23.352;2023-03-01T06:20:21;95540.31;;;5.73;73.57
41234;BME280;26968;42.686;23.352;2023-03-01T06:22:47;95563.16;;;5.96;73.10
41234;BME280;26968;42.686;23.352;2023-03-01T06:25:19;95370.88;;;4.49;73.37
41234;BME280;26968;42.686;23.352;2023-03-01T06:27:48;95382.38;;;4.60;73.78
41234;BME280;26968;42.686;23.352;2023-03-01T06:30:21;95688.75;;;6.64;73.32
41234;BME280;26968;42.686;23.352;2023-03-01T06:32:48;95123.22;;;3.05;73.01
41234;BME280;26968;42.686;23.352;2023-03-01T06:35:18;95240.97;;;3.65;73.12
41234;BME280;26968;42.686;23.352;2023-03-01T06:37:45;95531.69;;;5.50;73.11
41234;BME280;26968;42.686;23.352;2023-03-01T06:40:11;95635.25;;;6.35;72.97
41234;BME280;26968;42.686;23.352;2023-03-01T06:42:39;95605.78;;;6.22;72.58
41234;BME280;26968;42.686;23.352;2023-03-01T06:45:06;95708.84;;;6.82;73.10
41234;BME280;26968;42.686;23.352;2023-03-01T06:47:33;95732.38;;;7.00;72.83
41234;BME280;26968;42.686;23.352;2023-03-01T06:50:00;95747.56;;;7.10;73.27
41234;BME280;26968;42.686;23.352;2023-03-01T06:52:27;95696.31;;;6.89;72.16
41234;BME280;26968;42.686;23.352;2023-03-01T06:54:52;95409.38;;;5.07;71.89
41234;BME280;26968;42.686;23.352;2023-03-01T06:57:18;95677.63;;;6.90;72.03
41234;BME280;26968;42.686;23.352;2023-03-01T06:59:44;95696.25;;;7.01;72.30
41234;BME280;26968;42.686;23.352;2023-03-01T07:02:13;95740.72;;;7.42;72.15
41234;BME280;26968;42.686;23.352;2023-03-01T07:04:40;95697.38;;;7.05;72.03
41234;BME280;26968;42.686;23.352;2023-03-01T07:07:05;95731.03;;;7.14;71.92
41234;BME280;26968;42.686;23.352;2023-03-01T07:09:34;95633.28;;;6.42;72.70
41234;BME280;26968;42.686;23.352;2023-03-01T07:12:00;95628.72;;;6.38;73.42
41234;BME280;26968;42.686;23.352;2023-03-01T07:14:26;95721.44;;;7.08;72.42
41234;BME280;26968;42.686;23.352;2023-03-01T07:16:55;95687.75;;;6.82;72.73
41234;BME280;26968;42.686;23.352;2023-03-01T07:19:23;95457.25;;;5.09;72.93
41234;BME280;26968;42.686;23.352;2023-03-01T07:21:51;95509.63;;;5.51;72.60
41234;BME280;26968;42.686;23.352;2023-03-01T07:24:16;95424.63;;;5.22;72.18
41234;BME280;26968;42.686;23.352;2023-03-01T07:26:42;95370.81;;;4.84;72.88
41234;BME280;26968;42.686;23.352;2023-03-01T07:29:07;95386.41;;;5.02;72.06
41234;BME280;26968;42.686;23.352;2023-03-01T07:31:34;95482.63;;;5.83;71.39
41234;BME280;26968;42.686;23.352;2023-03-01T07:34:00;95362.63;;;5.09;71.11
41234;BME280;26968;42.686;23.352;2023-03-01T07:36:26;95538.81;;;6.34;71.02
41234;BME280;26968;42.686;23.352;2023-03-01T07:38:51;95682.03;;;7.35;71.05
41234;BME280;26968;42.686;23.352;2023-03-01T07:41:17;95389.75;;;5.55;70.24
41234;BME280;26968;42.686;23.352;2023-03-01T07:43:43;95374.91;;;5.49;70.65
41234;BME280;26968;42.686;23.352;2023-03-01T07:46:08;95474.88;;;6.22;70.09
41234;BME280;26968;42.686;23.352;2023-03-01T07:48:36;95677.22;;;7.65;69.51
41234;BME280;26968;42.686;23.352;2023-03-01T07:51:04;95694.59;;;7.45;70.07
41234;BME280;26968;42.686;23.352;2023-03-01T07:53:32;95721.66;;;7.90;69.38
41234;BME280;26968;42.686;23.352;2023-03-01T07:56:07;95654.38;;;7.54;69.52
41234;BME280;26968;42.686;23.352;2023-03-01T07:58:36;95713.09;;;8.00;68.47
41234;BME280;26968;42.686;23.352;2023-03-01T08:01:04;95677.38;;;7.97;67.87
41234;BME280;26968;42.686;23.352;2023-03-01T08:03:30;95618.50;;;7.58;68.25
41234;BME280;26968;42.686;23.352;2023-03-01T08:05:55;95595.13;;;7.45;67.99
41234;BME280;26968;42.686;23.352;2023-03-01T08:08:21;95586.81;;;7.36;67.90
41234;BME280;26968;42.686;23.352;2023-03-01T08:10:46;95576.22;;;7.53;67.68
41234;BME280;26968;42.686;23.352;2023-03-01T08:13:12;95630.88;;;7.96;67.88
41234;BME280;26968;42.686;23.352;2023-03-01T08:15:37;95689.44;;;8.32;67.31
41234;BME280;26968;42.686;23.352;2023-03-01T08:18:03;95567.75;;;7.51;67.20
41234;BME280;26968;42.686;23.352;2023-03-01T08:20:28;95589.84;;;7.89;67.29
41234;BME280;26968;42.686;23.352;2023-03-01T08:22:53;95597.91;;;7.77;66.82
41234;BME280;26968;42.686;23.352;2023-03-01T08:25:19;95634.31;;;7.97;66.89
41234;BME280;26968;42.686;23.352;2023-03-01T08:27:46;95607.97;;;7.80;67.32
41234;BME280;26968;42.686;23.352;2023-03-01T08:30:12;95499.53;;;7.21;67.30
41234;BME280;26968;42.686;23.352;2023-03-01T08:32:38;95630.69;;;8.03;67.68
41234;BME280;26968;42.686;23.352;2023-03-01T08:35:05;95578.91;;;7.80;66.70
41234;BME280;26968;42.686;23.352;2023-03-01T08:37:34;95695.72;;;8.69;65.85
41234;BME280;26968;42.686;23.352;2023-03-01T08:40:00;95648.84;;;8.38;66.17
41234;BME280;26968;42.686;23.352;2023-03-01T08:42:26;95440.34;;;6.90;66.82
41234;BME280;26968;42.686;23.352;2023-03-01T08:44:51;95657.25;;;8.35;66.44
41234;BME280;26968;42.686;23.352;2023-03-01T08:47:17;95623.38;;;8.10;66.35
41234;BME280;26968;42.686;23.352;2023-03-01T08:49:42;95616.00;;;8.12;66.56
41234;BME280;26968;42.686;23.352;2023-03-01T08:52:08;95349.88;;;6.46;66.02
41234;BME280;26968;42.686;23.352;2023-03-01T08:54:34;95697.13;;;8.77;64.50
41234;BME280;26968;42.686;23.352;2023-03-01T08:57:03;95619.16;;;8.31;63.73
41234;BME280;26968;42.686;23.352;2023-03-01T08:59:30;95701.44;;;8.88;64.90
41234;BME280;26968;42.686;23.352;2023-03-01T09:02:00;95637.06;;;8.29;63.99
41234;BME280;26968;42.686;23.352;2023-03-01T09:04:26;95651.91;;;8.51;64.26
41234;BME280;26968;42.686;23.352;2023-03-01T09:06:51;95605.44;;;8.34;63.97
41234;BME280;26968;42.686;23.352;2023-03-01T09:09:17;95606.75;;;8.31;63.60
41234;BME280;26968;42.686;23.352;2023-03-01T09:11:44;95582.84;;;7.99;63.67
41234;BME280;26968;42.686;23.352;2023-03-01T09:14:14;95621.28;;;8.34;63.50
41234;BME280;26968;42.686;23.352;2023-03-01T09:16:39;95603.84;;;8.33;63.35
41234;BME280;26968;42.686;23.352;2023-03-01T09:19:05;95688.91;;;8.78;63.27
41234;BME280;26968;42.686;23.352;2023-03-01T09:21:31;95455.25;;;7.23;63.83
41234;BME280;26968;42.686;23.352;2023-03-01T09:23:57;95471.66;;;7.47;63.85
41234;BME280;26968;42.686;23.352;2023-03-01T09:26:24;95162.72;;;5.37;64.14
41234;BME280;26968;42.686;23.352;2023-03-01T09:28:54;95139.47;;;5.29;64.33
41234;BME280;26968;42.686;23.352;2023-03-01T09:31:21;95691.22;;;8.97;64.84
41234;BME280;26968;42.686;23.352;2023-03-01T09:33:49;95411.28;;;6.85;64.90
41234;BME280;26968;42.686;23.352;2023-03-01T09:36:18;95263.13;;;5.85;64.88
41234;BME280;26968;42.686;23.352;2023-03-01T09:38:46;95134.94;;;5.41;64.15
41234;BME280;26968;42.686;23.352;2023-03-01T09:44:44;95684.34;;;9.27;63.36
41234;BME280;26968;42.686;23.352;2023-03-01T09:47:19;95165.03;;;5.89;63.20
41234;BME280;26968;42.686;23.352;2023-03-01T09:49:57;95632.97;;;8.65;63.77
41234;BME280;26968;42.686;23.352;2023-03-01T09:55:17;95654.06;;;9.13;63.10
41234;BME280;26968;42.686;23.352;2023-03-01T09:58:05;95679.66;;;9.40;62.91
41234;BME280;26968;42.686;23.352;2023-03-01T10:00:41;95518.91;;;8.24;62.89
41234;BME280;26968;42.686;23.352;2023-03-01T10:03:26;95667.00;;;9.47;61.94
41234;BME280;26968;42.686;23.352;2023-03-01T10:08:41;95591.28;;;9.04;62.17
41234;BME280;26968;42.686;23.352;2023-03-01T10:11:22;95648.06;;;9.23;62.35
41234;BME280;26968;42.686;23.352;2023-03-01T10:16:50;95515.91;;;8.69;61.64
41234;BME280;26968;42.686;23.352;2023-03-01T10:22:03;95645.22;;;9.35;61.98
41234;BME280;26968;42.686;23.352;2023-03-01T10:24:32;95663.59;;;9.51;62.10
41234;BME280;26968;42.686;23.352;2023-03-01T10:27:09;95490.34;;;8.48;61.93
41234;BME280;26968;42.686;23.352;2023-03-01T10:29:46;95613.38;;;9.24;62.01
41234;BME280;26968;42.686;23.352;2023-03-01T10:32:14;95566.56;;;8.93;61.94
41234;BME280;26968;42.686;23.352;2023-03-01T10:34:40;95607.69;;;9.43;61.20
41234;BME280;26968;42.686;23.352;2023-03-01T10:37:16;95637.22;;;9.66;61.33
41234;BME280;26968;42.686;23.352;2023-03-01T10:40:07;95540.03;;;9.15;61.79
41234;BME280;26968;42.686;23.352;2023-03-01T10:42:47;95613.72;;;9.80;61.33
41234;BME280;26968;42.686;23.352;2023-03-01T10:50:47;95624.16;;;10.07;60.16
41234;BME280;26968;42.686;23.352;2023-03-01T10:53:48;95610.56;;;9.83;59.90
41234;BME280;26968;42.686;23.352;2023-03-01T10:56:15;95606.34;;;9.92;59.22
41234;BME280;26968;42.686;23.352;2023-03-01T11:01:26;95617.94;;;10.28;59.22
41234;BME280;26968;42.686;23.352;2023-03-01T11:04:11;95613.94;;;10.31;59.43
41234;BME280;26968;42.686;23.352;2023-03-01T11:06:57;95609.53;;;9.94;59.58
41234;BME280;26968;42.686;23.352;2023-03-01T11:09:24;95379.53;;;8.36;60.63
41234;BME280;26968;42.686;23.352;2023-03-01T11:11:57;95173.84;;;6.97;60.89
41234;BME280;26968;42.686;23.352;2023-03-01T11:14:29;95513.44;;;9.42;59.73
41234;BME280;26968;42.686;23.352;2023-03-01T11:17:23;95545.22;;;9.47;60.05
41234;BME280;26968;42.686;23.352;2023-03-01T11:23:14;95624.16;;;10.02;61.28
41234;BME280;26968;42.686;23.352;2023-03-01T11:26:14;95632.34;;;10.00;61.16
41234;BME280;26968;42.686;23.352;2023-03-01T11:28:42;95563.97;;;9.92;59.79
41234;BME280;26968;42.686;23.352;2023-03-01T11:31:11;95548.59;;;9.94;58.93
41234;BME280;26968;42.686;23.352;2023-03-01T11:36:39;95622.63;;;10.16;59.60
41234;BME280;26968;42.686;23.352;2023-03-01T11:45:10;95599.56;;;10.17;60.66
41234;BME280;26968;42.686;23.352;2023-03-01T11:50:44;95471.94;;;9.62;59.83
41234;BME280;26968;42.686;23.352;2023-03-01T11:53:50;95584.00;;;10.45;59.73
41234;BME280;26968;42.686;23.352;2023-03-01T11:56:27;95578.19;;;10.43;59.56
41234;BME280;26968;42.686;23.352;2023-03-01T12:04:53;95582.97;;;10.36;59.54
41234;BME280;26968;42.686;23.352;2023-03-01T12:09:56;95587.25;;;10.53;59.19
41234;BME280;26968;42.686;23.352;2023-03-01T12:12:31;95579.03;;;10.74;59.49
41234;BME280;26968;42.686;23.352;2023-03-01T12:15:27;95577.97;;;10.75;58.84
41234;BME280;26968;42.686;23.352;2023-03-01T12:18:25;95576.38;;;10.64;58.84
41234;BME280;26968;42.686;23.352;2023-03-01T12:21:09;95563.38;;;10.68;58.54
41234;BME280;26968;42.686;23.352;2023-03-01T12:32:19;95271.97;;;8.37;60.26
41234;BME280;26968;42.686;23.352;2023-03-01T12:35:29;95559.91;;;10.37;59.92
41234;BME280;26968;42.686;23.352;2023-03-01T12:46:10;95545.31;;;10.44;60.04
41234;BME280;26968;42.686;23.352;2023-03-01T12:51:23;95556.41;;;10.26;60.01
41234;BME280;26968;42.686;23.352;2023-03-01T12:53:51;95500.91;;;9.94;60.33
41234;BME280;26968;42.686;23.352;2023-03-01T12:56:22;95469.84;;;9.69;59.64
41234;BME280;26968;42.686;23.352;2023-03-01T13:01:49;95548.50;;;10.36;61.21
41234;BME280;26968;42.686;23.352;2023-03-01T13:09:46;95534.97;;;10.28;59.92
41234;BME280;26968;42.686;23.352;2023-03-01T13:15:34;95550.75;;;10.02;61.67
41234;BME280;26968;42.686;23.352;2023-03-01T13:26:04;95558.81;;;9.65;63.22
41234;BME280;26968;42.686;23.352;2023-03-01T13:33:46;95559.38;;;9.73;62.48
41234;BME280;26968;42.686;23.352;2023-03-01T13:39:32;95567.59;;;9.71;62.97
41234;BME280;26968;42.686;23.352;2023-03-01T13:44:56;95506.72;;;9.24;64.14
41234;BME280;26968;42.686;23.352;2023-03-01T13:47:23;95479.69;;;9.17;63.45
41234;BME280;26968;42.686;23.352;2023-03-01T13:49:58;95454.75;;;9.03;64.03
41234;BME280;26968;42.686;23.352;2023-03-01T13:52:44;95557.53;;;9.68;64.27
41234;BME280;26968;42.686;23.352;2023-03-01T13:55:37;95501.25;;;9.41;63.28
41234;BME280;26968;42.686;23.352;2023-03-01T13:58:14;95546.50;;;9.91;63.52
41234;BME280;26968;42.686;23.352;2023-03-01T14:00:43;95512.22;;;9.64;63.78
41234;BME280;26968;42.686;23.352;2023-03-01T14:05:36;95482.72;;;9.41;64.04
41234;BME280;26968;42.686;23.352;2023-03-01T14:08:05;95507.41;;;9.56;63.54
41234;BME280;26968;42.686;23.352;2023-03-01T14:10:43;95542.75;;;9.87;63.78
41234;BME280;26968;42.686;23.352;2023-03-01T14:19:30;95483.94;;;9.18;63.60
41234;BME280;26968;42.686;23.352;2023-03-01T14:24:47;95546.06;;;9.57;64.61
41234;BME280;26968;42.686;23.352;2023-03-01T14:27:14;95517.19;;;9.46;64.35
41234;BME280;26968;42.686;23.352;2023-03-01T14:29:42;95470.69;;;9.18;65.03
41234;BME280;26968;42.686;23.352;2023-03-01T14:35:20;95304.63;;;8.26;64.27
41234;BME280;26968;42.686;23.352;2023-03-01T14:37:47;95474.47;;;9.27;64.50
41234;BME280;26968;42.686;23.352;2023-03-01T14:40:33;95543.00;;;9.81;64.15
41234;BME280;26968;42.686;23.352;2023-03-01T14:43:04;95539.31;;;9.82;64.27
41234;BME280;26968;42.686;23.352;2023-03-01T14:45:33;95494.34;;;9.40;64.02
41234;BME280;26968;42.686;23.352;2023-03-01T14:48:01;95511.91;;;9.09;65.02
41234;BME280;26968;42.686;23.352;2023-03-01T14:50:32;95506.91;;;9.07;65.19
41234;BME280;26968;42.686;23.352;2023-03-01T14:53:07;95288.63;;;7.63;64.39
41234;BME280;26968;42.686;23.352;2023-03-01T14:55:52;95506.16;;;9.17;64.73
41234;BME280;26968;42.686;23.352;2023-03-01T14:58:23;95294.06;;;7.84;64.70
41234;BME280;26968;42.686;23.352;2023-03-01T15:00:55;95536.91;;;9.23;66.35
41234;BME280;26968;42.686;23.352;2023-03-01T15:03:30;95530.44;;;9.09;65.76
41234;BME280;26968;42.686;23.352;2023-03-01T15:05:58;95460.31;;;8.64;66.26
41234;BME280;26968;42.686;23.352;2023-03-01T15:08:27;95468.94;;;8.49;66.62
41234;BME280;26968;42.686;23.352;2023-03-01T15:13:39;95520.66;;;9.09;66.01
41234;BME280;26968;42.686;23.352;2023-03-01T15:16:09;95448.44;;;8.62;66.08